sensor_id;sensor_type;location;lat;lon;timestamp;P1;durP1;ratioP1;P2;durP2;ratioP2
4943;SDS011;2487;52.224;11.006;2022-07-23T00:01:32;5.97;;;4.10;;
4943;SDS011;2487;52.224;11.006;2022-07-23T00:03:58;4.17;;;3.70;;
4943;SDS011;2487;52.224;11.006;2022-07-23T00:06:24;5.00;;;3.90;;
4943;SDS011;2487;52.224;11.006;2022-07-23T00:08:50;6.57;;;4.50;;
4943;SDS011;2487;52.224;11.006;2022-07-23T00:11:16;5.90;;;4.00;;
4943;SDS011;2487;52.224;11.006;2022-07-23T00:13:42;6.17;;;4.37;;
4943;SDS011;2487;52.224;11.006;2022-07-23T00:16:08;5.93;;;4.60;;
4943;SDS011;2487;52.224;11.006;2022-07-23T00:18:34;6.13;;;4.50;;
4943;SDS011;2487;52.224;11.006;2022-07-23T00:20:59;6.20;;;4.23;;
4943;SDS011;2487;52.224;11.006;2022-07-23T00:23:25;6.20;;;4.60;;
4943;SDS011;2487;52.224;11.006;2022-07-23T00:25:52;5.93;;;4.07;;
4943;SDS011;2487;52.224;11.006;2022-07-23T00:28:18;5.93;;;3.57;;
4943;SDS011;2487;52.224;11.006;2022-07-23T00:30:44;5.60;;;4.07;;
4943;SDS011;2487;52.224;11.006;2022-07-23T00:33:10;5.50;;;4.57;;
4943;SDS011;2487;52.224;11.006;2022-07-23T00:35:38;5.43;;;4.03;;
4943;SDS011;2487;52.224;11.006;2022-07-23T00:38:06;7.67;;;5.13;;
4943;SDS011;2487;52.224;11.006;2022-07-23T00:40:34;5.90;;;4.23;;
4943;SDS011;2487;52.224;11.006;2022-07-23T00:43:01;4.10;;;3.30;;
4943;SDS011;2487;52.224;11.006;2022-07-23T00:45:28;4.47;;;3.60;;
4943;SDS011;2487;52.224;11.006;2022-07-23T00:47:54;5.50;;;3.90;;
4943;SDS011;2487;52.224;11.006;2022-07-23T00:50:20;7.00;;;4.10;;
4943;SDS011;2487;52.224;11.006;2022-07-23T00:52:46;5.23;;;4.40;;
4943;SDS011;2487;52.224;11.006;2022-07-23T00:55:12;5.10;;;3.87;;
4943;SDS011;2487;52.224;11.006;2022-07-23T00:57:38;6.97;;;4.60;;
4943;SDS011;2487;52.224;11.006;2022-07-23T01:00:06;6.30;;;4.33;;
4943;SDS011;2487;52.224;11.006;2022-07-23T01:02:34;6.40;;;4.20;;
4943;SDS011;2487;52.224;11.006;2022-07-23T01:05:00;5.23;;;3.97;;
4943;SDS011;2487;52.224;11.006;2022-07-23T01:07:26;8.97;;;4.43;;
4943;SDS011;2487;52.224;11.006;2022-07-23T01:09:52;5.00;;;3.90;;
4943;SDS011;2487;52.224;11.006;2022-07-23T01:12:19;5.50;;;3.80;;
4943;SDS011;2487;52.224;11.006;2022-07-23T01:14:53;8.53;;;4.27;;
4943;SDS011;2487;52.224;11.006;2022-07-23T01:17:26;6.70;;;4.50;;
4943;SDS011;2487;52.224;11.006;2022-07-23T01:19:53;6.53;;;4.10;;
4943;SDS011;2487;52.224;11.006;2022-07-23T01:22:19;5.97;;;4.13;;
4943;SDS011;2487;52.224;11.006;2022-07-23T01:24:45;5.67;;;4.30;;
4943;SDS011;2487;52.224;11.006;2022-07-23T01:27:12;6.53;;;3.97;;
4943;SDS011;2487;52.224;11.006;2022-07-23T01:29:39;4.33;;;3.80;;
4943;SDS011;2487;52.224;11.006;2022-07-23T01:32:11;8.37;;;4.27;;
4943;SDS011;2487;52.224;11.006;2022-07-23T01:34:37;4.73;;;3.73;;
4943;SDS011;2487;52.224;11.006;2022-07-23T01:37:03;9.93;;;4.77;;
4943;SDS011;2487;52.224;11.006;2022-07-23T01:39:29;6.70;;;4.20;;
4943;SDS011;2487;52.224;11.006;2022-07-23T01:41:55;4.17;;;3.77;;
4943;SDS011;2487;52.224;11.006;2022-07-23T01:44:23;4.77;;;3.70;;
4943;SDS011;2487;52.224;11.006;2022-07-23T01:46:48;5.13;;;3.77;;
4943;SDS011;2487;52.224;11.006;2022-07-23T01:49:15;6.73;;;4.50;;
4943;SDS011;2487;52.224;11.006;2022-07-23T01:51:59;5.13;;;3.73;;
4943;SDS011;2487;52.224;11.006;2022-07-23T01:54:31;7.03;;;4.23;;
4943;SDS011;2487;52.224;11.006;2022-07-23T01:56:58;6.03;;;3.73;;
4943;SDS011;2487;52.224;11.006;2022-07-23T01:59:25;5.83;;;4.13;;
4943;SDS011;2487;52.224;11.006;2022-07-23T02:01:52;7.57;;;3.83;;
4943;SDS011;2487;52.224;11.006;2022-07-23T02:04:18;5.63;;;4.20;;
4943;SDS011;2487;52.224;11.006;2022-07-23T02:06:48;7.03;;;3.97;;
4943;SDS011;2487;52.224;11.006;2022-07-23T02:09:14;6.27;;;4.17;;
4943;SDS011;2487;52.224;11.006;2022-07-23T02:11:41;6.03;;;3.90;;
4943;SDS011;2487;52.224;11.006;2022-07-23T02:14:07;7.13;;;4.80;;
4943;SDS011;2487;52.224;11.006;2022-07-23T02:16:32;5.90;;;4.37;;
4943;SDS011;2487;52.224;11.006;2022-07-23T02:19:01;6.53;;;4.33;;
4943;SDS011;2487;52.224;11.006;2022-07-23T02:21:28;9.13;;;4.63;;
4943;SDS011;2487;52.224;11.006;2022-07-23T02:23:54;7.93;;;4.30;;
4943;SDS011;2487;52.224;11.006;2022-07-23T02:26:20;6.63;;;4.90;;
4943;SDS011;2487;52.224;11.006;2022-07-23T02:28:46;6.27;;;4.83;;
4943;SDS011;2487;52.224;11.006;2022-07-23T02:31:12;6.60;;;4.53;;
4943;SDS011;2487;52.224;11.006;2022-07-23T02:33:38;4.60;;;4.10;;
4943;SDS011;2487;52.224;11.006;2022-07-23T02:36:03;6.47;;;3.50;;
4943;SDS011;2487;52.224;11.006;2022-07-23T02:38:32;4.77;;;3.37;;
4943;SDS011;2487;52.224;11.006;2022-07-23T02:40:58;6.30;;;3.90;;
4943;SDS011;2487;52.224;11.006;2022-07-23T02:43:24;4.73;;;3.70;;
4943;SDS011;2487;52.224;11.006;2022-07-23T02:45:50;6.70;;;4.80;;
4943;SDS011;2487;52.224;11.006;2022-07-23T02:48:15;6.17;;;4.90;;
4943;SDS011;2487;52.224;11.006;2022-07-23T02:50:43;6.80;;;4.30;;
4943;SDS011;2487;52.224;11.006;2022-07-23T02:53:12;5.73;;;4.30;;
4943;SDS011;2487;52.224;11.006;2022-07-23T02:55:38;7.20;;;4.80;;
4943;SDS011;2487;52.224;11.006;2022-07-23T02:58:04;7.10;;;4.47;;
4943;SDS011;2487;52.224;11.006;2022-07-23T03:00:30;9.13;;;4.80;;
4943;SDS011;2487;52.224;11.006;2022-07-23T03:02:56;8.87;;;5.00;;
4943;SDS011;2487;52.224;11.006;2022-07-23T03:05:22;5.97;;;4.43;;
4943;SDS011;2487;52.224;11.006;2022-07-23T03:07:48;9.83;;;5.33;;
4943;SDS011;2487;52.224;11.006;2022-07-23T03:10:13;6.97;;;4.53;;
4943;SDS011;2487;52.224;11.006;2022-07-23T03:12:39;5.53;;;4.57;;
4943;SDS011;2487;52.224;11.006;2022-07-23T03:15:05;8.10;;;5.23;;
4943;SDS011;2487;52.224;11.006;2022-07-23T03:17:31;6.97;;;5.20;;
4943;SDS011;2487;52.224;11.006;2022-07-23T03:19:57;12.53;;;5.07;;
4943;SDS011;2487;52.224;11.006;2022-07-23T03:22:23;7.33;;;4.70;;
4943;SDS011;2487;52.224;11.006;2022-07-23T03:24:48;8.80;;;5.57;;
4943;SDS011;2487;52.224;11.006;2022-07-23T03:27:24;8.73;;;5.40;;
4943;SDS011;2487;52.224;11.006;2022-07-23T03:29:52;6.13;;;4.80;;
4943;SDS011;2487;52.224;11.006;2022-07-23T03:32:18;11.07;;;5.83;;
4943;SDS011;2487;52.224;11.006;2022-07-23T03:34:45;9.23;;;5.90;;
4943;SDS011;2487;52.224;11.006;2022-07-23T03:37:10;8.60;;;5.67;;
4943;SDS011;2487;52.224;11.006;2022-07-23T03:39:36;8.00;;;5.50;;
4943;SDS011;2487;52.224;11.006;2022-07-23T03:42:02;8.73;;;6.80;;
4943;SDS011;2487;52.224;11.006;2022-07-23T03:44:28;12.40;;;6.30;;
4943;SDS011;2487;52.224;11.006;2022-07-23T03:46:54;12.33;;;6.63;;
4943;SDS011;2487;52.224;11.006;2022-07-23T03:49:20;13.30;;;6.03;;
4943;SDS011;2487;52.224;11.006;2022-07-23T03:51:45;8.90;;;6.20;;
4943;SDS011;2487;52.224;11.006;2022-07-23T03:54:12;11.73;;;7.40;;
4943;SDS011;2487;52.224;11.006;2022-07-23T03:56:38;14.53;;;8.90;;
4943;SDS011;2487;52.224;11.006;2022-07-23T03:59:04;12.13;;;8.30;;
4943;SDS011;2487;52.224;11.006;2022-07-23T04:01:30;32.87;;;8.00;;
4943;SDS011;2487;52.224;11.006;2022-07-23T04:03:57;15.73;;;8.50;;
4943;SDS011;2487;52.224;11.006;2022-07-23T04:06:23;18.57;;;8.57;;
4943;SDS011;2487;52.224;11.006;2022-07-23T04:08:50;30.67;;;8.50;;
4943;SDS011;2487;52.224;11.006;2022-07-23T04:11:16;19.40;;;8.93;;
4943;SDS011;2487;52.224;11.006;2022-07-23T04:13:42;11.77;;;9.47;;
4943;SDS011;2487;52.224;11.006;2022-07-23T04:16:08;14.60;;;8.37;;
4943;SDS011;2487;52.224;11.006;2022-07-23T04:18:33;12.10;;;8.07;;
4943;SDS011;2487;52.224;11.006;2022-07-23T04:21:08;16.53;;;8.60;;
4943;SDS011;2487;52.224;11.006;2022-07-23T04:23:35;11.50;;;7.77;;
4943;SDS011;2487;52.224;11.006;2022-07-23T04:26:01;12.67;;;7.80;;
4943;SDS011;2487;52.224;11.006;2022-07-23T04:28:27;18.47;;;8.10;;
4943;SDS011;2487;52.224;11.006;2022-07-23T04:30:54;18.23;;;8.43;;
4943;SDS011;2487;52.224;11.006;2022-07-23T04:33:21;10.83;;;7.03;;
4943;SDS011;2487;52.224;11.006;2022-07-23T04:35:49;15.50;;;7.87;;
4943;SDS011;2487;52.224;11.006;2022-07-23T04:38:18;15.53;;;8.70;;
4943;SDS011;2487;52.224;11.006;2022-07-23T04:40:45;13.40;;;7.47;;
4943;SDS011;2487;52.224;11.006;2022-07-23T04:43:11;14.43;;;7.97;;
4943;SDS011;2487;52.224;11.006;2022-07-23T04:45:43;20.43;;;7.87;;
4943;SDS011;2487;52.224;11.006;2022-07-23T04:48:10;10.30;;;7.43;;
4943;SDS011;2487;52.224;11.006;2022-07-23T04:50:35;11.23;;;7.00;;
4943;SDS011;2487;52.224;11.006;2022-07-23T04:53:03;12.60;;;7.60;;
4943;SDS011;2487;52.224;11.006;2022-07-23T04:55:30;12.00;;;8.30;;
4943;SDS011;2487;52.224;11.006;2022-07-23T04:57:56;9.00;;;7.03;;
4943;SDS011;2487;52.224;11.006;2022-07-23T05:00:21;20.67;;;7.70;;
4943;SDS011;2487;52.224;11.006;2022-07-23T05:02:47;19.87;;;8.03;;
4943;SDS011;2487;52.224;11.006;2022-07-23T05:05:13;15.87;;;8.00;;
4943;SDS011;2487;52.224;11.006;2022-07-23T05:07:42;9.30;;;6.87;;
4943;SDS011;2487;52.224;11.006;2022-07-23T05:10:07;13.70;;;8.03;;
4943;SDS011;2487;52.224;11.006;2022-07-23T05:12:33;13.00;;;7.17;;
4943;SDS011;2487;52.224;11.006;2022-07-23T05:14:59;12.53;;;6.93;;
4943;SDS011;2487;52.224;11.006;2022-07-23T05:17:25;11.30;;;6.90;;
4943;SDS011;2487;52.224;11.006;2022-07-23T05:19:52;9.07;;;6.83;;
4943;SDS011;2487;52.224;11.006;2022-07-23T05:22:17;13.63;;;7.63;;
4943;SDS011;2487;52.224;11.006;2022-07-23T05:24:43;11.00;;;7.43;;
4943;SDS011;2487;52.224;11.006;2022-07-23T05:27:09;15.40;;;7.30;;
4943;SDS011;2487;52.224;11.006;2022-07-23T05:29:35;10.10;;;7.20;;
4943;SDS011;2487;52.224;11.006;2022-07-23T05:32:00;11.33;;;8.10;;
4943;SDS011;2487;52.224;11.006;2022-07-23T05:34:28;11.57;;;7.40;;
4943;SDS011;2487;52.224;11.006;2022-07-23T05:36:55;18.93;;;7.77;;
4943;SDS011;2487;52.224;11.006;2022-07-23T05:39:21;14.93;;;7.67;;
4943;SDS011;2487;52.224;11.006;2022-07-23T05:41:47;12.97;;;7.77;;
4943;SDS011;2487;52.224;11.006;2022-07-23T05:44:13;12.77;;;7.90;;
4943;SDS011;2487;52.224;11.006;2022-07-23T05:46:41;11.40;;;6.60;;
4943;SDS011;2487;52.224;11.006;2022-07-23T05:49:09;8.97;;;6.97;;
4943;SDS011;2487;52.224;11.006;2022-07-23T05:51:50;9.60;;;6.73;;
4943;SDS011;2487;52.224;11.006;2022-07-23T05:54:22;11.27;;;7.90;;
4943;SDS011;2487;52.224;11.006;2022-07-23T05:56:48;15.93;;;8.37;;
4943;SDS011;2487;52.224;11.006;2022-07-23T05:59:15;8.10;;;6.63;;
4943;SDS011;2487;52.224;11.006;2022-07-23T06:01:41;11.70;;;8.00;;
4943;SDS011;2487;52.224;11.006;2022-07-23T06:04:09;10.50;;;6.97;;
4943;SDS011;2487;52.224;11.006;2022-07-23T06:06:38;16.20;;;7.70;;
4943;SDS011;2487;52.224;11.006;2022-07-23T06:09:05;15.00;;;7.67;;
4943;SDS011;2487;52.224;11.006;2022-07-23T06:11:31;16.67;;;8.73;;
4943;SDS011;2487;52.224;11.006;2022-07-23T06:13:57;19.37;;;7.67;;
4943;SDS011;2487;52.224;11.006;2022-07-23T06:16:33;21.20;;;7.93;;
4943;SDS011;2487;52.224;11.006;2022-07-23T06:18:58;12.63;;;7.47;;
4943;SDS011;2487;52.224;11.006;2022-07-23T06:21:26;15.40;;;7.20;;
4943;SDS011;2487;52.224;11.006;2022-07-23T06:23:52;11.70;;;6.90;;
4943;SDS011;2487;52.224;11.006;2022-07-23T06:26:18;10.20;;;7.80;;
4943;SDS011;2487;52.224;11.006;2022-07-23T06:28:44;11.57;;;7.93;;
4943;SDS011;2487;52.224;11.006;2022-07-23T06:31:09;20.23;;;8.27;;
4943;SDS011;2487;52.224;11.006;2022-07-23T06:33:36;10.93;;;7.53;;
4943;SDS011;2487;52.224;11.006;2022-07-23T06:36:02;12.93;;;7.80;;
4943;SDS011;2487;52.224;11.006;2022-07-23T06:38:28;11.70;;;8.10;;
4943;SDS011;2487;52.224;11.006;2022-07-23T06:40:55;12.70;;;8.10;;
4943;SDS011;2487;52.224;11.006;2022-07-23T06:43:21;13.37;;;7.07;;
4943;SDS011;2487;52.224;11.006;2022-07-23T06:45:47;10.47;;;7.17;;
4943;SDS011;2487;52.224;11.006;2022-07-23T06:48:12;39.47;;;8.47;;
4943;SDS011;2487;52.224;11.006;2022-07-23T06:50:38;102.90;;;10.40;;
4943;SDS011;2487;52.224;11.006;2022-07-23T06:53:04;96.27;;;8.80;;
4943;SDS011;2487;52.224;11.006;2022-07-23T06:55:30;9.17;;;7.27;;
4943;SDS011;2487;52.224;11.006;2022-07-23T06:57:56;18.10;;;6.80;;
4943;SDS011;2487;52.224;11.006;2022-07-23T07:00:22;15.67;;;6.70;;
4943;SDS011;2487;52.224;11.006;2022-07-23T07:02:47;285.57;;;91.23;;
4943;SDS011;2487;52.224;11.006;2022-07-23T07:05:13;130.20;;;11.10;;
4943;SDS011;2487;52.224;11.006;2022-07-23T07:07:39;72.13;;;6.67;;
4943;SDS011;2487;52.224;11.006;2022-07-23T07:10:04;88.73;;;6.40;;
4943;SDS011;2487;52.224;11.006;2022-07-23T07:12:31;85.63;;;63.23;;
4943;SDS011;2487;52.224;11.006;2022-07-23T07:14:56;851.63;;;363.23;;
4943;SDS011;2487;52.224;11.006;2022-07-23T07:17:22;177.23;;;27.00;;
4943;SDS011;2487;52.224;11.006;2022-07-23T07:19:48;2266.67;;;999.90;;
4943;SDS011;2487;52.224;11.006;2022-07-23T07:22:14;13.30;;;4.97;;
4943;SDS011;2487;52.224;11.006;2022-07-23T07:24:40;11.70;;;4.53;;
4943;SDS011;2487;52.224;11.006;2022-07-23T07:27:05;9.30;;;4.30;;
4943;SDS011;2487;52.224;11.006;2022-07-23T07:29:31;17.60;;;5.63;;
4943;SDS011;2487;52.224;11.006;2022-07-23T07:31:57;8.60;;;3.13;;
4943;SDS011;2487;52.224;11.006;2022-07-23T07:34:22;11.60;;;3.67;;
4943;SDS011;2487;52.224;11.006;2022-07-23T07:36:48;11.70;;;4.13;;
4943;SDS011;2487;52.224;11.006;2022-07-23T07:39:15;9.83;;;3.87;;
4943;SDS011;2487;52.224;11.006;2022-07-23T07:41:40;8.70;;;3.57;;
4943;SDS011;2487;52.224;11.006;2022-07-23T07:44:06;9.73;;;3.33;;
4943;SDS011;2487;52.224;11.006;2022-07-23T07:46:32;8.80;;;3.43;;
4943;SDS011;2487;52.224;11.006;2022-07-23T07:48:58;8.93;;;3.20;;
4943;SDS011;2487;52.224;11.006;2022-07-23T07:51:23;13.30;;;4.30;;
4943;SDS011;2487;52.224;11.006;2022-07-23T07:53:49;30.77;;;3.83;;
4943;SDS011;2487;52.224;11.006;2022-07-23T07:56:15;11.93;;;2.70;;
4943;SDS011;2487;52.224;11.006;2022-07-23T07:58:40;14.83;;;2.90;;
4943;SDS011;2487;52.224;11.006;2022-07-23T08:01:06;6.60;;;3.93;;
4943;SDS011;2487;52.224;11.006;2022-07-23T08:03:32;6.07;;;3.53;;
4943;SDS011;2487;52.224;11.006;2022-07-23T08:05:57;5.97;;;4.37;;
4943;SDS011;2487;52.224;11.006;2022-07-23T08:08:23;5.47;;;3.40;;
4943;SDS011;2487;52.224;11.006;2022-07-23T08:10:50;8.13;;;3.83;;
4943;SDS011;2487;52.224;11.006;2022-07-23T08:13:16;5.40;;;3.50;;
4943;SDS011;2487;52.224;11.006;2022-07-23T08:15:42;8.67;;;4.20;;
4943;SDS011;2487;52.224;11.006;2022-07-23T08:18:08;5.13;;;3.53;;
4943;SDS011;2487;52.224;11.006;2022-07-23T08:20:34;4.37;;;3.97;;
4943;SDS011;2487;52.224;11.006;2022-07-23T08:23:04;10.63;;;4.80;;
4943;SDS011;2487;52.224;11.006;2022-07-23T08:25:35;8.57;;;4.43;;
4943;SDS011;2487;52.224;11.006;2022-07-23T08:28:03;6.00;;;4.40;;
4943;SDS011;2487;52.224;11.006;2022-07-23T08:30:31;5.90;;;3.80;;
4943;SDS011;2487;52.224;11.006;2022-07-23T08:37:59;9.47;;;4.27;;
4943;SDS011;2487;52.224;11.006;2022-07-23T08:40:27;7.90;;;4.40;;
4943;SDS011;2487;52.224;11.006;2022-07-23T08:42:54;5.90;;;4.03;;
4943;SDS011;2487;52.224;11.006;2022-07-23T08:45:20;6.80;;;4.67;;
4943;SDS011;2487;52.224;11.006;2022-07-23T08:47:48;10.87;;;3.67;;
4943;SDS011;2487;52.224;11.006;2022-07-23T08:50:20;7.07;;;3.70;;
4943;SDS011;2487;52.224;11.006;2022-07-23T08:52:48;6.87;;;3.73;;
4943;SDS011;2487;52.224;11.006;2022-07-23T08:55:16;9.40;;;4.23;;
4943;SDS011;2487;52.224;11.006;2022-07-23T08:57:43;15.10;;;4.63;;
4943;SDS011;2487;52.224;11.006;2022-07-23T09:00:09;7.60;;;3.80;;
4943;SDS011;2487;52.224;11.006;2022-07-23T09:02:39;6.03;;;4.20;;
4943;SDS011;2487;52.224;11.006;2022-07-23T09:05:06;6.80;;;3.30;;
4943;SDS011;2487;52.224;11.006;2022-07-23T09:07:33;5.30;;;3.70;;
4943;SDS011;2487;52.224;11.006;2022-07-23T09:10:04;8.23;;;3.97;;
4943;SDS011;2487;52.224;11.006;2022-07-23T09:12:35;8.87;;;4.43;;
4943;SDS011;2487;52.224;11.006;2022-07-23T09:15:05;25.13;;;4.70;;
4943;SDS011;2487;52.224;11.006;2022-07-23T09:17:39;9.10;;;3.67;;
4943;SDS011;2487;52.224;11.006;2022-07-23T09:22:42;8.53;;;4.07;;
4943;SDS011;2487;52.224;11.006;2022-07-23T09:25:12;92.80;;;25.07;;
4943;SDS011;2487;52.224;11.006;2022-07-23T09:30:18;7.03;;;2.57;;
4943;SDS011;2487;52.224;11.006;2022-07-23T09:33:02;5.70;;;3.23;;
4943;SDS011;2487;52.224;11.006;2022-07-23T09:35:43;4.57;;;2.77;;
4943;SDS011;2487;52.224;11.006;2022-07-23T09:38:10;5.77;;;3.20;;
4943;SDS011;2487;52.224;11.006;2022-07-23T09:40:36;6.47;;;3.13;;
4943;SDS011;2487;52.224;11.006;2022-07-23T09:43:01;3.23;;;2.70;;
4943;SDS011;2487;52.224;11.006;2022-07-23T09:45:27;6.00;;;3.20;;
4943;SDS011;2487;52.224;11.006;2022-07-23T09:48:09;5.80;;;3.30;;
4943;SDS011;2487;52.224;11.006;2022-07-23T09:50:36;8.40;;;3.07;;
4943;SDS011;2487;52.224;11.006;2022-07-23T09:53:02;4.10;;;3.03;;
4943;SDS011;2487;52.224;11.006;2022-07-23T09:55:34;4.33;;;3.57;;
4943;SDS011;2487;52.224;11.006;2022-07-23T09:58:07;6.50;;;3.30;;
4943;SDS011;2487;52.224;11.006;2022-07-23T10:00:37;6.40;;;2.93;;
4943;SDS011;2487;52.224;11.006;2022-07-23T10:03:05;10.53;;;2.63;;
4943;SDS011;2487;52.224;11.006;2022-07-23T10:05:50;4.27;;;2.73;;
4943;SDS011;2487;52.224;11.006;2022-07-23T10:08:26;7.30;;;2.40;;
4943;SDS011;2487;52.224;11.006;2022-07-23T10:11:12;4.80;;;2.50;;
4943;SDS011;2487;52.224;11.006;2022-07-23T10:14:00;3.47;;;2.40;;
4943;SDS011;2487;52.224;11.006;2022-07-23T10:16:40;4.33;;;2.97;;
4943;SDS011;2487;52.224;11.006;2022-07-23T10:19:06;3.30;;;1.80;;
4943;SDS011;2487;52.224;11.006;2022-07-23T10:21:52;8.13;;;3.10;;
4943;SDS011;2487;52.224;11.006;2022-07-23T10:24:28;16.00;;;2.13;;
4943;SDS011;2487;52.224;11.006;2022-07-23T10:35:42;2.23;;;1.80;;
4943;SDS011;2487;52.224;11.006;2022-07-23T10:40:58;6.20;;;2.53;;
4943;SDS011;2487;52.224;11.006;2022-07-23T10:43:26;4.50;;;1.97;;
4943;SDS011;2487;52.224;11.006;2022-07-23T10:45:52;7.53;;;1.90;;
4943;SDS011;2487;52.224;11.006;2022-07-23T10:48:19;2.87;;;1.50;;
4943;SDS011;2487;52.224;11.006;2022-07-23T10:56:48;3.77;;;2.20;;
4943;SDS011;2487;52.224;11.006;2022-07-23T10:59:14;2.33;;;1.70;;
4943;SDS011;2487;52.224;11.006;2022-07-23T11:01:40;1.90;;;1.80;;
4943;SDS011;2487;52.224;11.006;2022-07-23T11:04:06;4.70;;;1.70;;
4943;SDS011;2487;52.224;11.006;2022-07-23T11:25:10;215.97;;;179.37;;
4943;SDS011;2487;52.224;11.006;2022-07-23T11:35:32;4.53;;;2.23;;
4943;SDS011;2487;52.224;11.006;2022-07-23T11:40:46;3.57;;;2.57;;
4943;SDS011;2487;52.224;11.006;2022-07-23T11:43:13;4.00;;;2.60;;
4943;SDS011;2487;52.224;11.006;2022-07-23T11:45:40;4.97;;;2.83;;
4943;SDS011;2487;52.224;11.006;2022-07-23T11:48:08;4.97;;;3.00;;
4943;SDS011;2487;52.224;11.006;2022-07-23T11:50:35;6.60;;;2.80;;
4943;SDS011;2487;52.224;11.006;2022-07-23T11:53:02;5.90;;;3.43;;
4943;SDS011;2487;52.224;11.006;2022-07-23T11:55:30;4.50;;;2.80;;
4943;SDS011;2487;52.224;11.006;2022-07-23T11:57:56;5.13;;;3.00;;
4943;SDS011;2487;52.224;11.006;2022-07-23T12:00:24;4.93;;;2.93;;
4943;SDS011;2487;52.224;11.006;2022-07-23T12:02:53;2.70;;;2.50;;
4943;SDS011;2487;52.224;11.006;2022-07-23T12:05:25;4.47;;;3.10;;
4943;SDS011;2487;52.224;11.006;2022-07-23T12:07:56;8.07;;;2.53;;
4943;SDS011;2487;52.224;11.006;2022-07-23T12:10:24;1.40;;;1.30;;
4943;SDS011;2487;52.224;11.006;2022-07-23T12:13:05;2.27;;;2.10;;
4943;SDS011;2487;52.224;11.006;2022-07-23T12:15:39;6.33;;;2.50;;
4943;SDS011;2487;52.224;11.006;2022-07-23T12:18:26;4.63;;;3.20;;
4943;SDS011;2487;52.224;11.006;2022-07-23T12:20:54;7.23;;;3.03;;
4943;SDS011;2487;52.224;11.006;2022-07-23T12:23:23;2.27;;;2.10;;
4943;SDS011;2487;52.224;11.006;2022-07-23T12:25:50;2.40;;;2.20;;
4943;SDS011;2487;52.224;11.006;2022-07-23T12:28:18;2.57;;;2.37;;
4943;SDS011;2487;52.224;11.006;2022-07-23T12:30:49;2.40;;;2.20;;
4943;SDS011;2487;52.224;11.006;2022-07-23T12:36:04;5.80;;;1.50;;
4943;SDS011;2487;52.224;11.006;2022-07-23T12:38:37;13.43;;;1.90;;
4943;SDS011;2487;52.224;11.006;2022-07-23T12:41:05;3.13;;;2.20;;
4943;SDS011;2487;52.224;11.006;2022-07-23T12:51:15;1.73;;;1.50;;
4943;SDS011;2487;52.224;11.006;2022-07-23T12:53:42;1.77;;;1.67;;
4943;SDS011;2487;52.224;11.006;2022-07-23T12:56:10;2.07;;;1.60;;
4943;SDS011;2487;52.224;11.006;2022-07-23T12:58:39;2.57;;;1.90;;
4943;SDS011;2487;52.224;11.006;2022-07-23T13:09:09;131.47;;;11.07;;
4943;SDS011;2487;52.224;11.006;2022-07-23T13:11:36;129.83;;;32.43;;
4943;SDS011;2487;52.224;11.006;2022-07-23T13:14:02;107.43;;;7.80;;
4943;SDS011;2487;52.224;11.006;2022-07-23T13:16:28;92.10;;;4.17;;
4943;SDS011;2487;52.224;11.006;2022-07-23T13:18:55;69.57;;;3.67;;
4943;SDS011;2487;52.224;11.006;2022-07-23T13:21:22;65.50;;;4.57;;
4943;SDS011;2487;52.224;11.006;2022-07-23T13:23:48;51.77;;;2.50;;
4943;SDS011;2487;52.224;11.006;2022-07-23T13:26:14;187.33;;;25.17;;
4943;SDS011;2487;52.224;11.006;2022-07-23T13:28:40;42.30;;;2.77;;
4943;SDS011;2487;52.224;11.006;2022-07-23T13:31:06;25.70;;;2.00;;
4943;SDS011;2487;52.224;11.006;2022-07-23T13:33:33;35.83;;;2.90;;
4943;SDS011;2487;52.224;11.006;2022-07-23T13:35:58;41.07;;;1.93;;
4943;SDS011;2487;52.224;11.006;2022-07-23T13:38:24;123.47;;;13.83;;
4943;SDS011;2487;52.224;11.006;2022-07-23T13:40:50;114.47;;;9.40;;
4943;SDS011;2487;52.224;11.006;2022-07-23T13:43:19;2266.67;;;999.90;;
4943;SDS011;2487;52.224;11.006;2022-07-23T13:45:47;2266.67;;;999.90;;
4943;SDS011;2487;52.224;11.006;2022-07-23T13:48:13;2266.67;;;999.90;;
4943;SDS011;2487;52.224;11.006;2022-07-23T13:50:39;495.47;;;103.83;;
4943;SDS011;2487;52.224;11.006;2022-07-23T13:53:10;607.03;;;551.93;;
4943;SDS011;2487;52.224;11.006;2022-07-23T13:55:38;1641.37;;;727.20;;
4943;SDS011;2487;52.224;11.006;2022-07-23T13:58:05;1131.87;;;697.80;;
4943;SDS011;2487;52.224;11.006;2022-07-23T14:00:32;2266.67;;;999.90;;
4943;SDS011;2487;52.224;11.006;2022-07-23T14:02:59;1628.03;;;691.50;;
4943;SDS011;2487;52.224;11.006;2022-07-23T14:05:25;807.73;;;344.50;;
4943;SDS011;2487;52.224;11.006;2022-07-23T14:07:51;898.07;;;480.67;;
4943;SDS011;2487;52.224;11.006;2022-07-23T14:10:18;240.77;;;117.43;;
4943;SDS011;2487;52.224;11.006;2022-07-23T14:12:45;3.23;;;3.03;;
4943;SDS011;2487;52.224;11.006;2022-07-23T14:15:12;7.60;;;2.40;;
4943;SDS011;2487;52.224;11.006;2022-07-23T14:17:39;3.30;;;1.47;;
4943;SDS011;2487;52.224;11.006;2022-07-23T14:20:07;2.00;;;1.77;;
4943;SDS011;2487;52.224;11.006;2022-07-23T14:22:34;2.73;;;1.87;;
4943;SDS011;2487;52.224;11.006;2022-07-23T14:25:00;11.23;;;2.43;;
4943;SDS011;2487;52.224;11.006;2022-07-23T14:27:26;3.63;;;1.70;;
4943;SDS011;2487;52.224;11.006;2022-07-23T14:29:53;2.93;;;1.60;;
4943;SDS011;2487;52.224;11.006;2022-07-23T14:32:20;2.97;;;1.53;;
4943;SDS011;2487;52.224;11.006;2022-07-23T14:34:46;2.50;;;1.70;;
4943;SDS011;2487;52.224;11.006;2022-07-23T14:37:11;3.20;;;1.90;;
4943;SDS011;2487;52.224;11.006;2022-07-23T14:39:38;1.50;;;1.40;;
4943;SDS011;2487;52.224;11.006;2022-07-23T14:42:04;2.57;;;1.90;;
4943;SDS011;2487;52.224;11.006;2022-07-23T14:44:31;1.30;;;1.20;;
4943;SDS011;2487;52.224;11.006;2022-07-23T14:46:56;5.13;;;1.47;;
4943;SDS011;2487;52.224;11.006;2022-07-23T14:49:22;2.47;;;1.53;;
4943;SDS011;2487;52.224;11.006;2022-07-23T14:51:48;1.90;;;1.80;;
4943;SDS011;2487;52.224;11.006;2022-07-23T14:54:14;7.80;;;1.67;;
4943;SDS011;2487;52.224;11.006;2022-07-23T14:56:41;10.30;;;1.60;;
4943;SDS011;2487;52.224;11.006;2022-07-23T14:59:07;4.90;;;1.60;;
4943;SDS011;2487;52.224;11.006;2022-07-23T15:01:33;1.57;;;1.47;;
4943;SDS011;2487;52.224;11.006;2022-07-23T15:03:59;2.40;;;1.40;;
4943;SDS011;2487;52.224;11.006;2022-07-23T15:06:25;3.93;;;1.33;;
4943;SDS011;2487;52.224;11.006;2022-07-23T15:08:51;2.43;;;1.80;;
4943;SDS011;2487;52.224;11.006;2022-07-23T15:11:17;1.80;;;1.70;;
4943;SDS011;2487;52.224;11.006;2022-07-23T15:13:43;1.70;;;1.10;;
4943;SDS011;2487;52.224;11.006;2022-07-23T15:16:08;67.13;;;37.10;;
4943;SDS011;2487;52.224;11.006;2022-07-23T15:18:34;4.50;;;1.43;;
4943;SDS011;2487;52.224;11.006;2022-07-23T15:21:01;3.73;;;1.50;;
4943;SDS011;2487;52.224;11.006;2022-07-23T15:23:27;2.90;;;1.30;;
4943;SDS011;2487;52.224;11.006;2022-07-23T15:25:56;2.87;;;1.20;;
4943;SDS011;2487;52.224;11.006;2022-07-23T15:28:22;1.80;;;1.23;;
4943;SDS011;2487;52.224;11.006;2022-07-23T15:30:51;2.57;;;1.47;;
4943;SDS011;2487;52.224;11.006;2022-07-23T15:33:18;6.40;;;1.27;;
4943;SDS011;2487;52.224;11.006;2022-07-23T15:35:44;2.03;;;1.27;;
4943;SDS011;2487;52.224;11.006;2022-07-23T15:38:10;6.03;;;1.80;;
4943;SDS011;2487;52.224;11.006;2022-07-23T15:40:36;2.07;;;1.30;;
4943;SDS011;2487;52.224;11.006;2022-07-23T15:43:02;8.20;;;1.47;;
4943;SDS011;2487;52.224;11.006;2022-07-23T15:45:30;5.50;;;1.40;;
4943;SDS011;2487;52.224;11.006;2022-07-23T15:47:56;3.43;;;1.33;;
4943;SDS011;2487;52.224;11.006;2022-07-23T15:50:22;16.00;;;2.53;;
4943;SDS011;2487;52.224;11.006;2022-07-23T15:52:48;6.63;;;2.30;;
4943;SDS011;2487;52.224;11.006;2022-07-23T15:55:14;8.00;;;3.17;;
4943;SDS011;2487;52.224;11.006;2022-07-23T15:57:40;4.20;;;1.97;;
4943;SDS011;2487;52.224;11.006;2022-07-23T16:00:05;5.87;;;1.40;;
4943;SDS011;2487;52.224;11.006;2022-07-23T16:02:32;2.63;;;1.20;;
4943;SDS011;2487;52.224;11.006;2022-07-23T16:04:58;1.30;;;1.20;;
4943;SDS011;2487;52.224;11.006;2022-07-23T16:07:24;2.10;;;1.50;;
4943;SDS011;2487;52.224;11.006;2022-07-23T16:09:49;0.67;;;0.50;;